createdAt,value
2022-11-30T00:01:32.771Z,8.57
2022-11-30T00:04:00.205Z,7.45
2022-11-30T00:06:27.955Z,6.47
2022-11-30T00:08:57.387Z,7.35
2022-11-30T00:11:27.269Z,8.25
2022-11-30T00:13:57.340Z,6.93
2022-11-30T00:16:25.524Z,6.72
2022-11-30T00:18:52.946Z,7.40
2022-11-30T00:21:20.528Z,7.30
2022-11-30T00:23:48.371Z,7.03
2022-11-30T00:26:19.354Z,7.30
2022-11-30T00:28:55.894Z,7.63
2022-11-30T00:31:25.046Z,6.75
2022-11-30T00:33:54.172Z,8.68
2022-11-30T00:36:22.880Z,6.65
2022-11-30T00:38:51.926Z,7.07
2022-11-30T00:41:20.153Z,6.57
2022-11-30T00:43:47.769Z,7.15
2022-11-30T00:46:15.574Z,7.45
2022-11-30T00:48:43.044Z,7.25
2022-11-30T00:51:11.622Z,7.70
2022-11-30T00:53:40.501Z,6.63
2022-11-30T00:56:09.195Z,8.25
2022-11-30T00:58:36.943Z,8.50
2022-11-30T01:01:05.409Z,7.07
2022-11-30T01:03:33.581Z,7.20
2022-11-30T01:06:06.202Z,8.32
2022-11-30T01:08:34.484Z,8.83
2022-11-30T01:11:16.150Z,7.70
2022-11-30T01:13:43.759Z,8.00
2022-11-30T01:16:21.114Z,7.70
2022-11-30T01:18:49.360Z,8.25
2022-11-30T01:21:20.223Z,7.85
2022-11-30T01:23:48.474Z,8.43
2022-11-30T01:26:16.696Z,7.55
2022-11-30T01:28:45.203Z,7.15
2022-11-30T01:31:14.625Z,7.05
2022-11-30T01:33:43.185Z,7.57
2022-11-30T01:36:18.530Z,7.32
2022-11-30T01:38:51.648Z,7.78
2022-11-30T01:41:21.981Z,7.38
2022-11-30T01:43:52.789Z,7.20
2022-11-30T01:46:40.612Z,6.95
2022-11-30T01:49:11.145Z,6.82
2022-11-30T01:52:02.973Z,9.52
2022-11-30T01:54:34.429Z,7.93
2022-11-30T01:57:13.657Z,7.63
2022-11-30T01:59:41.440Z,8.25
2022-11-30T02:02:09.181Z,7.65
2022-11-30T02:04:38.311Z,7.55
2022-11-30T02:07:08.337Z,7.63
2022-11-30T02:09:46.631Z,7.22
2022-11-30T02:12:27.782Z,7.43
2022-11-30T02:15:02.999Z,7.75
2022-11-30T02:18:02.202Z,7.63
2022-11-30T02:20:48.180Z,6.78
2022-11-30T02:23:41.335Z,7.82
2022-11-30T02:26:18.917Z,7.20
2022-11-30T02:29:25.252Z,7.50
2022-11-30T02:32:14.740Z,7.70
2022-11-30T02:34:44.894Z,6.18
2022-11-30T02:37:14.928Z,6.80
2022-11-30T02:39:43.714Z,7.35
2022-11-30T02:42:13.398Z,7.43
2022-11-30T02:44:43.717Z,7.25
2022-11-30T02:47:26.162Z,7.43
2022-11-30T02:50:00.700Z,7.18
2022-11-30T02:52:30.593Z,7.35
2022-11-30T02:55:07.654Z,7.90
2022-11-30T02:57:35.601Z,6.57
2022-11-30T03:00:07.802Z,8.68
2022-11-30T03:02:35.456Z,7.22
2022-11-30T03:05:04.351Z,8.15
2022-11-30T03:07:32.057Z,7.18
2022-11-30T03:10:00.230Z,6.32
2022-11-30T03:12:27.801Z,6.30
2022-11-30T03:14:55.404Z,7.38
2022-11-30T03:17:23.250Z,6.47
2022-11-30T03:19:53.945Z,6.97
2022-11-30T03:22:21.486Z,7.00
2022-11-30T03:24:49.243Z,6.97
2022-11-30T03:27:17.093Z,7.47
2022-11-30T03:29:44.822Z,6.57
2022-11-30T03:32:12.454Z,6.47
2022-11-30T03:34:40.017Z,8.35
2022-11-30T03:37:07.412Z,7.63
2022-11-30T03:39:35.034Z,7.55
2022-11-30T03:42:02.593Z,7.18
2022-11-30T03:44:30.142Z,5.75
2022-11-30T03:46:57.576Z,6.80
2022-11-30T03:49:25.062Z,6.97
2022-11-30T03:51:52.455Z,6.50
2022-11-30T03:54:21.687Z,7.75
2022-11-30T03:56:49.146Z,6.45
2022-11-30T03:59:16.713Z,6.63
2022-11-30T04:01:44.294Z,6.75
2022-11-30T04:04:12.484Z,6.10
2022-11-30T04:06:40.787Z,6.15
2022-11-30T04:09:09.917Z,6.53
2022-11-30T04:11:37.382Z,6.68
2022-11-30T04:14:04.840Z,5.97
2022-11-30T04:16:32.523Z,6.45
2022-11-30T04:19:00.470Z,6.45
2022-11-30T04:21:27.830Z,6.53
2022-11-30T04:23:55.487Z,6.32
2022-11-30T04:26:25.018Z,6.68
2022-11-30T04:28:52.498Z,7.25
2022-11-30T04:31:20.052Z,5.97
2022-11-30T04:33:47.612Z,6.25
2022-11-30T04:36:19.843Z,5.97
2022-11-30T04:38:47.870Z,8.67
2022-11-30T04:41:15.693Z,8.55
2022-11-30T04:43:43.260Z,7.38
2022-11-30T04:46:11.005Z,7.00
2022-11-30T04:48:38.694Z,6.88
2022-11-30T04:51:08.052Z,9.05
2022-11-30T04:53:37.402Z,7.40
2022-11-30T04:56:07.256Z,6.70
2022-11-30T04:58:35.066Z,5.53
2022-11-30T05:01:02.651Z,6.32
2022-11-30T05:03:30.345Z,5.80
2022-11-30T05:05:57.771Z,5.40
2022-11-30T05:08:25.280Z,5.28
2022-11-30T05:10:53.979Z,5.97
2022-11-30T05:13:23.398Z,5.57
2022-11-30T05:15:51.135Z,5.93
2022-11-30T05:18:19.139Z,5.65
2022-11-30T05:20:50.919Z,5.90
2022-11-30T05:23:20.252Z,6.47
2022-11-30T05:25:50.384Z,5.25
2022-11-30T05:28:18.982Z,5.00
2022-11-30T05:30:46.505Z,6.00
2022-11-30T05:33:13.993Z,4.90
2022-11-30T05:35:41.422Z,6.22
2022-11-30T05:38:09.133Z,5.22
2022-11-30T05:40:36.783Z,5.47
2022-11-30T05:43:05.584Z,5.25
2022-11-30T05:45:35.810Z,5.55
2022-11-30T05:48:03.274Z,5.45
2022-11-30T05:50:31.385Z,7.30
2022-11-30T05:53:00.966Z,7.47
2022-11-30T05:55:29.596Z,10.65
2022-11-30T05:57:57.022Z,6.38
2022-11-30T06:00:27.156Z,7.05
2022-11-30T06:03:00.439Z,5.50
2022-11-30T06:05:28.634Z,6.43
2022-11-30T06:07:58.862Z,5.68
2022-11-30T06:10:27.415Z,6.43
2022-11-30T06:12:54.858Z,5.50
2022-11-30T06:15:22.473Z,5.93
2022-11-30T06:17:50.070Z,6.60
2022-11-30T06:20:17.473Z,6.28
2022-11-30T06:22:47.702Z,6.43
2022-11-30T06:25:15.463Z,6.28
2022-11-30T06:27:43.771Z,5.72
2022-11-30T06:30:12.226Z,5.65
2022-11-30T06:32:43.972Z,6.78
2022-11-30T06:35:11.418Z,7.78
2022-11-30T06:37:42.265Z,5.63
2022-11-30T06:40:12.526Z,5.18
2022-11-30T06:42:40.037Z,7.72
2022-11-30T06:45:09.818Z,5.18
2022-11-30T06:47:43.114Z,4.93
2022-11-30T06:52:41.193Z,7.85
2022-11-30T06:55:08.669Z,5.35
2022-11-30T06:57:35.781Z,6.50
2022-11-30T07:00:04.614Z,5.07
2022-11-30T07:02:34.685Z,5.90
2022-11-30T07:05:01.824Z,4.93
2022-11-30T07:07:31.623Z,5.93
2022-11-30T07:09:59.540Z,6.10
2022-11-30T07:12:28.117Z,4.45
2022-11-30T07:14:59.700Z,6.15
2022-11-30T07:17:31.126Z,4.85
2022-11-30T07:20:00.924Z,6.20
2022-11-30T07:22:28.238Z,4.82
2022-11-30T07:25:16.433Z,6.07
2022-11-30T07:27:45.711Z,5.03
2022-11-30T07:30:13.382Z,4.63
2022-11-30T07:32:40.537Z,5.38
2022-11-30T07:35:08.370Z,5.57
2022-11-30T07:37:38.914Z,6.20
2022-11-30T07:40:09.235Z,5.03
2022-11-30T07:42:37.615Z,5.90
2022-11-30T07:45:05.493Z,5.13
2022-11-30T07:47:33.416Z,4.57
2022-11-30T07:50:02.813Z,6.30
2022-11-30T07:52:30.753Z,5.57
2022-11-30T07:54:58.023Z,4.72
2022-11-30T07:57:25.269Z,6.35
2022-11-30T07:59:52.450Z,5.28
2022-11-30T08:02:19.915Z,4.47
2022-11-30T08:04:51.010Z,5.40
2022-11-30T08:07:18.586Z,5.82
2022-11-30T08:09:45.779Z,5.63
2022-11-30T08:12:15.393Z,4.28
2022-11-30T08:15:18.178Z,5.25
2022-11-30T08:17:35.122Z,5.75
2022-11-30T08:20:02.396Z,4.95
2022-11-30T08:22:30.342Z,4.82
2022-11-30T08:24:57.469Z,4.45
2022-11-30T08:27:24.828Z,5.22
2022-11-30T08:29:52.415Z,5.53
2022-11-30T08:32:19.977Z,5.07
2022-11-30T08:34:49.404Z,6.63
2022-11-30T08:37:29.750Z,6.90
2022-11-30T08:40:08.512Z,6.45
2022-11-30T08:42:35.761Z,7.47
2022-11-30T08:45:05.187Z,7.85
2022-11-30T08:47:32.487Z,8.40
2022-11-30T08:50:02.189Z,8.77
2022-11-30T08:52:31.637Z,10.00
2022-11-30T08:55:01.532Z,9.50
2022-11-30T08:57:33.386Z,9.35
2022-11-30T09:00:00.567Z,9.27
2022-11-30T09:02:27.918Z,10.45
2022-11-30T09:04:55.284Z,8.50
2022-11-30T09:07:24.850Z,10.30
2022-11-30T09:09:54.438Z,8.25
2022-11-30T09:12:24.309Z,8.15
2022-11-30T09:14:57.561Z,11.65
2022-11-30T09:17:25.527Z,7.43
2022-11-30T09:19:52.885Z,7.28
2022-11-30T09:22:20.149Z,8.27
2022-11-30T09:24:47.621Z,7.80
2022-11-30T09:27:15.038Z,8.55
2022-11-30T09:29:42.835Z,9.80
2022-11-30T09:32:12.972Z,8.85
2022-11-30T09:34:40.232Z,10.15
2022-11-30T09:37:09.757Z,9.98
2022-11-30T09:39:37.082Z,9.43
2022-11-30T09:42:04.241Z,12.43
2022-11-30T09:44:43.489Z,15.90
2022-11-30T09:47:20.141Z,20.92
2022-11-30T09:49:50.073Z,16.77
2022-11-30T09:52:36.055Z,15.00
2022-11-30T09:55:09.595Z,12.02
2022-11-30T09:57:39.768Z,11.82
2022-11-30T10:00:23.710Z,10.97
2022-11-30T10:02:53.347Z,13.27
2022-11-30T10:05:22.063Z,14.55
2022-11-30T10:08:25.266Z,32.50
2022-11-30T10:11:19.923Z,26.60
2022-11-30T10:13:53.257Z,25.10
2022-11-30T10:16:20.439Z,24.05
2022-11-30T10:19:06.527Z,22.52
2022-11-30T10:21:58.551Z,22.05
2022-11-30T10:24:49.522Z,19.65
2022-11-30T10:27:25.458Z,20.20
2022-11-30T10:29:54.601Z,17.58
2022-11-30T10:32:29.300Z,16.67
2022-11-30T10:35:05.196Z,18.00
2022-11-30T10:37:39.611Z,17.92
2022-11-30T10:40:20.563Z,17.15
2022-11-30T10:43:27.954Z,17.75
2022-11-30T10:45:55.626Z,16.13
2022-11-30T10:48:37.131Z,15.18
2022-11-30T10:51:04.676Z,13.48
2022-11-30T10:53:33.454Z,13.23
2022-11-30T10:56:09.922Z,13.50
2022-11-30T10:59:00.943Z,15.23
2022-11-30T11:01:31.220Z,13.55
2022-11-30T11:04:10.049Z,11.25
2022-11-30T11:06:55.450Z,11.27
2022-11-30T11:09:27.515Z,11.88
2022-11-30T11:11:57.441Z,11.02
2022-11-30T11:14:28.134Z,10.43
2022-11-30T11:17:04.338Z,11.25
2022-11-30T11:19:32.719Z,10.35
2022-11-30T11:22:16.099Z,12.48
2022-11-30T11:24:44.051Z,9.77
2022-11-30T11:27:25.824Z,9.23
2022-11-30T11:30:05.322Z,10.85
2022-11-30T11:32:32.771Z,10.50
2022-11-30T11:35:00.848Z,10.20
2022-11-30T11:37:31.469Z,10.18
2022-11-30T11:40:04.461Z,10.18
2022-11-30T11:42:38.223Z,10.52
2022-11-30T11:45:06.556Z,10.20
2022-11-30T11:47:45.895Z,10.18
2022-11-30T11:50:13.137Z,10.05
2022-11-30T11:52:43.502Z,9.80
2022-11-30T11:55:19.007Z,9.93
2022-11-30T11:57:54.715Z,9.88
2022-11-30T12:00:25.449Z,8.50
2022-11-30T12:03:11.397Z,9.75
2022-11-30T12:05:48.661Z,9.45
2022-11-30T12:08:36.154Z,9.23
2022-11-30T12:11:21.417Z,8.63
2022-11-30T12:13:51.188Z,10.15
2022-11-30T12:16:29.965Z,10.10
2022-11-30T12:19:10.032Z,8.68
2022-11-30T12:21:54.951Z,11.35
2022-11-30T12:25:01.367Z,9.73
2022-11-30T12:28:10.587Z,8.82
2022-11-30T12:30:56.032Z,10.77
2022-11-30T12:33:56.861Z,8.90
2022-11-30T12:36:43.092Z,9.07
2022-11-30T12:39:32.858Z,9.93
2022-11-30T12:42:03.730Z,9.70
2022-11-30T12:44:42.532Z,11.30
2022-11-30T12:47:38.007Z,9.43
2022-11-30T12:50:32.867Z,9.18
2022-11-30T12:53:30.574Z,8.40
2022-11-30T12:56:30.464Z,11.10
2022-11-30T12:59:12.794Z,8.00
2022-11-30T13:02:07.139Z,8.48
2022-11-30T13:04:51.947Z,8.15
2022-11-30T13:07:35.627Z,8.73
2022-11-30T13:10:12.105Z,8.45
2022-11-30T13:12:44.128Z,9.05
2022-11-30T13:15:23.632Z,7.18
2022-11-30T13:17:54.675Z,7.18
2022-11-30T13:20:37.779Z,6.22
2022-11-30T13:23:22.587Z,6.82
2022-11-30T13:26:07.860Z,5.55
2022-11-30T13:28:42.200Z,6.85
2022-11-30T13:31:29.823Z,14.05
2022-11-30T13:33:59.704Z,5.60
2022-11-30T13:36:33.072Z,5.35
2022-11-30T13:41:38.291Z,6.13
2022-11-30T13:44:06.529Z,7.07
2022-11-30T13:46:34.809Z,5.68
2022-11-30T13:49:22.833Z,5.82
2022-11-30T13:52:13.633Z,7.43
2022-11-30T13:54:39.495Z,8.75
2022-11-30T13:57:38.822Z,5.60
2022-11-30T14:00:31.122Z,5.43
2022-11-30T14:03:20.463Z,4.90
2022-11-30T14:05:56.726Z,5.28
2022-11-30T14:08:24.001Z,4.72
2022-11-30T14:11:15.226Z,5.63
2022-11-30T14:13:44.168Z,3.95
2022-11-30T14:16:24.249Z,5.65
2022-11-30T14:18:52.148Z,4.50
2022-11-30T14:21:34.585Z,4.93
2022-11-30T14:24:23.754Z,4.25
2022-11-30T14:26:51.877Z,4.70
2022-11-30T14:29:33.582Z,4.15
2022-11-30T14:32:10.519Z,5.07
2022-11-30T14:34:42.531Z,4.90
2022-11-30T14:37:42.844Z,5.18
2022-11-30T14:40:20.732Z,4.50
2022-11-30T14:42:54.518Z,5.00
2022-11-30T14:45:32.757Z,4.38
2022-11-30T14:48:14.228Z,4.65
2022-11-30T14:50:54.901Z,4.90
2022-11-30T14:58:07.615Z,4.50
2022-11-30T15:00:46.808Z,4.60
2022-11-30T15:03:42.643Z,4.25
2022-11-30T15:06:39.278Z,5.55
2022-11-30T15:09:20.593Z,3.72
2022-11-30T15:11:56.397Z,4.75
2022-11-30T15:14:28.020Z,4.43
2022-11-30T15:21:53.364Z,5.13
2022-11-30T15:24:26.882Z,4.20
2022-11-30T15:27:49.800Z,5.00
2022-11-30T15:34:56.838Z,4.57
2022-11-30T15:37:41.410Z,5.78
2022-11-30T15:44:29.952Z,4.38
2022-11-30T15:47:10.219Z,4.35
2022-11-30T15:49:55.470Z,4.00
2022-11-30T15:53:17.431Z,4.05
2022-11-30T15:59:28.924Z,4.97
2022-11-30T16:02:02.415Z,5.20
2022-11-30T16:04:56.332Z,6.38
2022-11-30T16:08:03.683Z,6.07
2022-11-30T16:10:40.571Z,8.18
2022-11-30T16:13:16.019Z,5.70
2022-11-30T16:15:53.354Z,7.93
2022-11-30T16:18:28.313Z,9.63
2022-11-30T16:21:02.290Z,6.30
2022-11-30T16:23:32.131Z,6.13
2022-11-30T16:26:07.813Z,6.38
2022-11-30T16:28:40.913Z,5.50
2022-11-30T16:31:16.603Z,7.07
2022-11-30T16:33:47.837Z,5.78
2022-11-30T16:36:23.064Z,4.70
2022-11-30T16:38:51.826Z,8.82
2022-11-30T16:41:21.929Z,6.38
2022-11-30T16:43:54.039Z,5.28
2022-11-30T16:46:24.285Z,6.78
2022-11-30T16:48:52.444Z,6.38
2022-11-30T16:51:31.483Z,7.50
2022-11-30T16:53:58.838Z,5.18
2022-11-30T16:56:26.509Z,5.25
2022-11-30T16:58:54.710Z,6.45
2022-11-30T17:01:40.366Z,6.43
2022-11-30T17:04:14.821Z,5.70
2022-11-30T17:06:42.363Z,5.97
2022-11-30T17:09:16.986Z,5.18
2022-11-30T17:11:46.752Z,7.85
2022-11-30T17:14:17.616Z,8.13
2022-11-30T17:16:44.827Z,7.72
2022-11-30T17:19:14.662Z,8.23
2022-11-30T17:21:42.963Z,11.07
2022-11-30T17:24:10.545Z,5.43
2022-11-30T17:26:42.828Z,7.82
2022-11-30T17:29:10.406Z,6.35
2022-11-30T17:31:38.001Z,5.82
2022-11-30T17:34:08.835Z,5.47
2022-11-30T17:36:36.305Z,4.97
2022-11-30T17:39:09.910Z,5.45
2022-11-30T17:41:39.687Z,6.10
2022-11-30T17:44:10.599Z,4.85
2022-11-30T17:46:38.716Z,5.30
2022-11-30T17:49:06.766Z,6.38
2022-11-30T17:51:37.107Z,6.63
2022-11-30T17:54:05.753Z,7.47
2022-11-30T17:56:33.125Z,5.70
2022-11-30T17:59:04.167Z,6.80
2022-11-30T18:01:31.431Z,8.85
2022-11-30T18:10:40.857Z,4.50
2022-11-30T18:13:07.998Z,7.65
2022-11-30T18:15:35.487Z,8.07
2022-11-30T18:18:04.959Z,5.32
2022-11-30T18:20:32.340Z,5.43
2022-11-30T18:23:02.250Z,4.63
2022-11-30T18:25:35.056Z,7.35
2022-11-30T18:28:02.238Z,4.95
2022-11-30T18:30:32.100Z,5.22
2022-11-30T18:33:03.428Z,5.15
2022-11-30T18:35:33.367Z,6.38
2022-11-30T18:38:03.230Z,4.55
2022-11-30T18:40:30.719Z,4.40
2022-11-30T18:43:00.944Z,5.15
2022-11-30T18:45:28.384Z,4.82
2022-11-30T18:47:57.884Z,4.95
2022-11-30T18:50:25.138Z,4.22
2022-11-30T18:52:54.732Z,4.90
2022-11-30T18:55:23.927Z,4.82
2022-11-30T18:57:53.807Z,5.35
2022-11-30T19:00:22.443Z,5.35
2022-11-30T19:02:50.176Z,5.40
2022-11-30T19:05:38.249Z,5.45
2022-11-30T19:08:11.305Z,3.75
2022-11-30T19:10:40.604Z,4.15
2022-11-30T19:13:07.984Z,4.22
2022-11-30T19:15:42.346Z,4.25
2022-11-30T19:18:11.049Z,4.15
2022-11-30T19:20:39.583Z,4.32
2022-11-30T19:23:07.331Z,4.05
2022-11-30T19:25:34.846Z,4.50
2022-11-30T19:28:04.639Z,5.45
2022-11-30T19:30:32.275Z,4.82
2022-11-30T19:33:00.026Z,3.92
2022-11-30T19:35:27.375Z,4.03
2022-11-30T19:37:56.912Z,5.10
2022-11-30T19:40:25.508Z,5.28
2022-11-30T19:42:52.853Z,4.72
2022-11-30T19:45:20.050Z,5.15
2022-11-30T19:47:47.228Z,4.80
2022-11-30T19:50:14.690Z,5.20
2022-11-30T19:52:41.929Z,4.75
2022-11-30T19:55:11.706Z,10.65
2022-11-30T19:57:38.892Z,4.18
2022-11-30T20:00:10.003Z,4.63
2022-11-30T20:02:44.939Z,4.75
2022-11-30T20:05:12.372Z,4.88
2022-11-30T20:07:39.867Z,7.43
2022-11-30T20:10:08.033Z,4.68
2022-11-30T20:12:35.101Z,3.97
2022-11-30T20:15:02.378Z,4.75
2022-11-30T20:17:32.152Z,4.45
2022-11-30T20:20:01.861Z,5.00
2022-11-30T20:22:30.563Z,4.07
2022-11-30T20:24:57.807Z,6.40
2022-11-30T20:27:27.380Z,5.13
2022-11-30T20:29:55.589Z,4.65
2022-11-30T20:32:23.160Z,4.93
2022-11-30T20:34:50.765Z,6.53
2022-11-30T20:37:18.176Z,5.28
2022-11-30T20:39:48.516Z,6.32
2022-11-30T20:42:16.277Z,4.13
2022-11-30T20:45:08.692Z,4.32
2022-11-30T20:47:50.513Z,4.80
2022-11-30T20:50:22.037Z,5.07
2022-11-30T20:52:49.330Z,4.28
2022-11-30T20:55:17.109Z,4.18
2022-11-30T20:57:44.201Z,4.05
2022-11-30T21:00:13.367Z,3.90
2022-11-30T21:02:41.211Z,5.47
2022-11-30T21:05:10.683Z,3.97
2022-11-30T21:07:40.043Z,4.43
2022-11-30T21:10:08.213Z,5.10
2022-11-30T21:12:35.393Z,3.90
2022-11-30T21:15:04.564Z,5.03
2022-11-30T21:17:34.459Z,5.30
2022-11-30T21:20:02.172Z,4.03
2022-11-30T21:22:29.622Z,4.00
2022-11-30T21:24:59.282Z,5.38
2022-11-30T21:27:26.504Z,3.78
2022-11-30T21:29:54.561Z,4.22
2022-11-30T21:32:24.853Z,5.38
2022-11-30T21:34:52.232Z,6.43
2022-11-30T21:37:19.729Z,6.85
2022-11-30T21:39:46.983Z,3.95
2022-11-30T21:42:14.144Z,3.90
2022-11-30T21:44:41.671Z,4.80
2022-11-30T21:47:09.106Z,4.68
2022-11-30T21:49:36.396Z,4.05
2022-11-30T21:52:03.671Z,3.80
2022-11-30T21:54:31.067Z,4.25
2022-11-30T21:57:05.456Z,4.05
2022-11-30T21:59:32.861Z,3.50
2022-11-30T22:02:04.715Z,4.38
2022-11-30T22:04:39.308Z,3.47
2022-11-30T22:07:06.736Z,4.53
2022-11-30T22:09:34.391Z,4.13
2022-11-30T22:12:01.693Z,4.07
2022-11-30T22:14:36.175Z,4.40
2022-11-30T22:17:03.393Z,4.20
2022-11-30T22:19:33.823Z,3.67
2022-11-30T22:22:01.115Z,5.00
2022-11-30T22:24:30.858Z,4.03
2022-11-30T22:26:58.181Z,4.15
2022-11-30T22:29:25.435Z,2.97
2022-11-30T22:31:53.685Z,4.72
2022-11-30T22:34:21.522Z,4.07
2022-11-30T22:36:48.812Z,4.15
2022-11-30T22:39:19.235Z,3.60
2022-11-30T22:41:54.219Z,5.38
2022-11-30T22:44:22.901Z,4.05
2022-11-30T22:46:50.388Z,3.97
2022-11-30T22:49:21.268Z,4.05
2022-11-30T22:51:51.916Z,6.50
2022-11-30T22:54:19.562Z,4.07
2022-11-30T22:56:47.113Z,4.07
2022-11-30T22:59:15.492Z,4.47
2022-11-30T23:01:48.663Z,3.95
2022-11-30T23:04:20.962Z,4.18
2022-11-30T23:06:49.543Z,4.72
2022-11-30T23:09:20.215Z,4.00
2022-11-30T23:11:52.917Z,3.53
2022-11-30T23:14:20.212Z,3.55
2022-11-30T23:16:50.683Z,3.95
2022-11-30T23:19:20.198Z,4.22
2022-11-30T23:21:48.571Z,4.25
2022-11-30T23:24:20.747Z,3.85
2022-11-30T23:26:53.292Z,3.95
2022-11-30T23:29:20.429Z,3.93
2022-11-30T23:31:50.367Z,4.32
2022-11-30T23:34:22.112Z,4.82
2022-11-30T23:36:50.174Z,4.38
2022-11-30T23:39:18.556Z,4.53
2022-11-30T23:41:46.082Z,4.10
2022-11-30T23:44:13.738Z,4.82
2022-11-30T23:46:41.440Z,3.72
2022-11-30T23:49:08.914Z,3.97
2022-11-30T23:51:38.443Z,3.63
2022-11-30T23:54:05.681Z,4.00
2022-11-30T23:56:32.830Z,4.38
2022-11-30T23:59:05.919Z,4.38
